sensor_id;sensor_type;location;lat;lon;timestamp;P1;durP1;ratioP1;P2;durP2;ratioP2
64361;SDS011;50685;53.346;-6.296;2023-05-07T00:01:14;11.75;;;3.38;;
64361;SDS011;50685;53.346;-6.296;2023-05-07T00:03:57;8.70;;;2.40;;
64361;SDS011;50685;53.346;-6.296;2023-05-07T00:06:36;9.50;;;3.25;;
64361;SDS011;50685;53.346;-6.296;2023-05-07T00:12:23;8.32;;;3.40;;
64361;SDS011;50685;53.346;-6.296;2023-05-07T00:15:21;8.65;;;2.25;;
64361;SDS011;50685;53.346;-6.296;2023-05-07T00:17:53;10.93;;;2.78;;
64361;SDS011;50685;53.346;-6.296;2023-05-07T00:20:18;10.77;;;3.00;;
64361;SDS011;50685;53.346;-6.296;2023-05-07T00:22:46;13.35;;;4.25;;
64361;SDS011;50685;53.346;-6.296;2023-05-07T00:25:14;9.85;;;2.70;;
64361;SDS011;50685;53.346;-6.296;2023-05-07T00:27:51;11.68;;;2.78;;
64361;SDS011;50685;53.346;-6.296;2023-05-07T00:30:22;11.57;;;2.75;;
64361;SDS011;50685;53.346;-6.296;2023-05-07T00:32:51;12.82;;;3.03;;
64361;SDS011;50685;53.346;-6.296;2023-05-07T00:35:25;10.77;;;3.53;;
64361;SDS011;50685;53.346;-6.296;2023-05-07T00:37:58;12.43;;;3.30;;
64361;SDS011;50685;53.346;-6.296;2023-05-07T00:40:33;8.48;;;2.53;;
64361;SDS011;50685;53.346;-6.296;2023-05-07T00:43:01;8.73;;;2.33;;
64361;SDS011;50685;53.346;-6.296;2023-05-07T00:45:27;11.55;;;2.75;;
64361;SDS011;50685;53.346;-6.296;2023-05-07T00:48:02;9.70;;;2.95;;
64361;SDS011;50685;53.346;-6.296;2023-05-07T00:50:34;10.82;;;2.63;;
64361;SDS011;50685;53.346;-6.296;2023-05-07T00:56:05;4.72;;;2.15;;
64361;SDS011;50685;53.346;-6.296;2023-05-07T00:58:34;14.00;;;2.88;;
64361;SDS011;50685;53.346;-6.296;2023-05-07T01:01:12;9.30;;;2.08;;
64361;SDS011;50685;53.346;-6.296;2023-05-07T01:03:38;10.98;;;3.28;;
64361;SDS011;50685;53.346;-6.296;2023-05-07T01:06:04;7.05;;;2.03;;
64361;SDS011;50685;53.346;-6.296;2023-05-07T01:08:46;8.38;;;2.72;;
64361;SDS011;50685;53.346;-6.296;2023-05-07T01:11:57;8.43;;;2.22;;
64361;SDS011;50685;53.346;-6.296;2023-05-07T01:14:10;10.57;;;2.80;;
64361;SDS011;50685;53.346;-6.296;2023-05-07T01:16:38;9.68;;;2.50;;
64361;SDS011;50685;53.346;-6.296;2023-05-07T01:19:08;4.93;;;2.20;;
64361;SDS011;50685;53.346;-6.296;2023-05-07T01:21:38;11.38;;;1.85;;
64361;SDS011;50685;53.346;-6.296;2023-05-07T01:24:09;6.15;;;1.95;;
64361;SDS011;50685;53.346;-6.296;2023-05-07T01:27:06;4.68;;;1.75;;
64361;SDS011;50685;53.346;-6.296;2023-05-07T01:29:35;8.48;;;2.40;;
64361;SDS011;50685;53.346;-6.296;2023-05-07T01:32:03;4.65;;;1.88;;
64361;SDS011;50685;53.346;-6.296;2023-05-07T01:34:46;4.43;;;1.73;;
64361;SDS011;50685;53.346;-6.296;2023-05-07T01:37:18;5.50;;;1.67;;
64361;SDS011;50685;53.346;-6.296;2023-05-07T01:39:47;9.63;;;2.30;;
64361;SDS011;50685;53.346;-6.296;2023-05-07T01:42:26;5.40;;;1.60;;
64361;SDS011;50685;53.346;-6.296;2023-05-07T01:44:55;3.53;;;1.70;;
64361;SDS011;50685;53.346;-6.296;2023-05-07T01:47:46;7.97;;;1.70;;
64361;SDS011;50685;53.346;-6.296;2023-05-07T01:50:16;3.30;;;1.27;;
64361;SDS011;50685;53.346;-6.296;2023-05-07T01:52:46;2.97;;;1.77;;
64361;SDS011;50685;53.346;-6.296;2023-05-07T01:55:18;3.47;;;1.65;;
64361;SDS011;50685;53.346;-6.296;2023-05-07T01:57:46;4.63;;;1.70;;
64361;SDS011;50685;53.346;-6.296;2023-05-07T02:00:14;2.45;;;1.20;;
64361;SDS011;50685;53.346;-6.296;2023-05-07T02:02:43;6.50;;;1.60;;
64361;SDS011;50685;53.346;-6.296;2023-05-07T02:05:18;3.78;;;1.58;;
64361;SDS011;50685;53.346;-6.296;2023-05-07T02:10:21;6.18;;;1.80;;
64361;SDS011;50685;53.346;-6.296;2023-05-07T02:12:52;5.60;;;1.67;;
64361;SDS011;50685;53.346;-6.296;2023-05-07T02:15:20;4.68;;;1.35;;
64361;SDS011;50685;53.346;-6.296;2023-05-07T02:18:05;2.80;;;1.35;;
64361;SDS011;50685;53.346;-6.296;2023-05-07T02:20:35;5.15;;;1.73;;
64361;SDS011;50685;53.346;-6.296;2023-05-07T02:23:01;5.60;;;1.63;;
64361;SDS011;50685;53.346;-6.296;2023-05-07T02:25:27;5.20;;;1.90;;
64361;SDS011;50685;53.346;-6.296;2023-05-07T02:27:52;2.80;;;1.50;;
64361;SDS011;50685;53.346;-6.296;2023-05-07T02:30:31;6.10;;;1.75;;
64361;SDS011;50685;53.346;-6.296;2023-05-07T02:32:59;4.82;;;1.10;;
64361;SDS011;50685;53.346;-6.296;2023-05-07T02:35:27;7.25;;;1.45;;
64361;SDS011;50685;53.346;-6.296;2023-05-07T02:37:53;2.63;;;1.50;;
64361;SDS011;50685;53.346;-6.296;2023-05-07T02:40:21;3.65;;;1.48;;
64361;SDS011;50685;53.346;-6.296;2023-05-07T02:42:56;3.92;;;2.00;;
64361;SDS011;50685;53.346;-6.296;2023-05-07T02:45:26;5.65;;;1.70;;
64361;SDS011;50685;53.346;-6.296;2023-05-07T02:47:57;3.83;;;1.65;;
64361;SDS011;50685;53.346;-6.296;2023-05-07T02:50:22;4.88;;;1.58;;
64361;SDS011;50685;53.346;-6.296;2023-05-07T02:52:50;5.88;;;1.75;;
64361;SDS011;50685;53.346;-6.296;2023-05-07T02:55:15;6.25;;;1.67;;
64361;SDS011;50685;53.346;-6.296;2023-05-07T02:57:46;7.05;;;2.05;;
64361;SDS011;50685;53.346;-6.296;2023-05-07T03:00:15;5.30;;;1.73;;
64361;SDS011;50685;53.346;-6.296;2023-05-07T03:02:45;4.38;;;1.67;;
64361;SDS011;50685;53.346;-6.296;2023-05-07T03:05:13;5.82;;;1.70;;
64361;SDS011;50685;53.346;-6.296;2023-05-07T03:07:39;4.57;;;1.50;;
64361;SDS011;50685;53.346;-6.296;2023-05-07T03:16:06;5.38;;;1.77;;
64361;SDS011;50685;53.346;-6.296;2023-05-07T03:18:34;6.63;;;1.80;;
64361;SDS011;50685;53.346;-6.296;2023-05-07T03:21:00;4.80;;;1.90;;
64361;SDS011;50685;53.346;-6.296;2023-05-07T03:23:26;4.72;;;1.77;;
64361;SDS011;50685;53.346;-6.296;2023-05-07T03:25:54;4.47;;;1.70;;
64361;SDS011;50685;53.346;-6.296;2023-05-07T03:28:22;4.40;;;1.45;;
64361;SDS011;50685;53.346;-6.296;2023-05-07T03:30:47;7.38;;;2.28;;
64361;SDS011;50685;53.346;-6.296;2023-05-07T03:33:13;6.03;;;2.03;;
64361;SDS011;50685;53.346;-6.296;2023-05-07T03:35:39;8.10;;;1.98;;
64361;SDS011;50685;53.346;-6.296;2023-05-07T03:38:07;4.30;;;1.83;;
64361;SDS011;50685;53.346;-6.296;2023-05-07T03:40:33;9.00;;;1.95;;
64361;SDS011;50685;53.346;-6.296;2023-05-07T03:43:06;10.10;;;1.83;;
64361;SDS011;50685;53.346;-6.296;2023-05-07T03:45:31;7.63;;;1.80;;
64361;SDS011;50685;53.346;-6.296;2023-05-07T03:47:57;6.72;;;1.70;;
64361;SDS011;50685;53.346;-6.296;2023-05-07T03:50:25;9.55;;;2.08;;
64361;SDS011;50685;53.346;-6.296;2023-05-07T03:52:50;3.45;;;1.70;;
64361;SDS011;50685;53.346;-6.296;2023-05-07T03:55:16;10.48;;;1.98;;
64361;SDS011;50685;53.346;-6.296;2023-05-07T03:57:41;5.85;;;1.80;;
64361;SDS011;50685;53.346;-6.296;2023-05-07T04:00:07;6.97;;;1.70;;
64361;SDS011;50685;53.346;-6.296;2023-05-07T04:02:39;8.00;;;2.03;;
64361;SDS011;50685;53.346;-6.296;2023-05-07T04:05:06;9.10;;;2.13;;
64361;SDS011;50685;53.346;-6.296;2023-05-07T04:07:32;4.75;;;1.60;;
64361;SDS011;50685;53.346;-6.296;2023-05-07T04:10:01;6.30;;;2.00;;
64361;SDS011;50685;53.346;-6.296;2023-05-07T04:12:27;6.38;;;1.60;;
64361;SDS011;50685;53.346;-6.296;2023-05-07T04:14:56;3.58;;;1.80;;
64361;SDS011;50685;53.346;-6.296;2023-05-07T04:17:23;6.15;;;1.95;;
64361;SDS011;50685;53.346;-6.296;2023-05-07T04:19:49;6.22;;;2.10;;
64361;SDS011;50685;53.346;-6.296;2023-05-07T04:22:17;5.38;;;1.90;;
64361;SDS011;50685;53.346;-6.296;2023-05-07T04:24:42;6.00;;;1.60;;
64361;SDS011;50685;53.346;-6.296;2023-05-07T04:27:08;10.30;;;1.83;;
64361;SDS011;50685;53.346;-6.296;2023-05-07T04:29:36;6.10;;;1.40;;
64361;SDS011;50685;53.346;-6.296;2023-05-07T04:32:01;5.80;;;1.77;;
64361;SDS011;50685;53.346;-6.296;2023-05-07T04:34:30;3.20;;;1.27;;
64361;SDS011;50685;53.346;-6.296;2023-05-07T04:36:57;6.45;;;1.38;;
64361;SDS011;50685;53.346;-6.296;2023-05-07T04:39:25;6.75;;;1.55;;
64361;SDS011;50685;53.346;-6.296;2023-05-07T04:41:54;4.05;;;1.80;;
64361;SDS011;50685;53.346;-6.296;2023-05-07T04:44:22;5.88;;;1.67;;
64361;SDS011;50685;53.346;-6.296;2023-05-07T04:46:48;6.97;;;1.80;;
64361;SDS011;50685;53.346;-6.296;2023-05-07T04:49:20;7.22;;;2.25;;
64361;SDS011;50685;53.346;-6.296;2023-05-07T04:51:46;8.88;;;1.42;;
64361;SDS011;50685;53.346;-6.296;2023-05-07T04:54:12;8.57;;;1.35;;
64361;SDS011;50685;53.346;-6.296;2023-05-07T04:56:37;3.08;;;1.38;;
64361;SDS011;50685;53.346;-6.296;2023-05-07T04:59:08;3.78;;;1.20;;
64361;SDS011;50685;53.346;-6.296;2023-05-07T05:01:34;1.55;;;1.00;;
64361;SDS011;50685;53.346;-6.296;2023-05-07T05:03:59;3.70;;;1.00;;
64361;SDS011;50685;53.346;-6.296;2023-05-07T05:06:25;6.13;;;1.35;;
64361;SDS011;50685;53.346;-6.296;2023-05-07T05:08:53;4.70;;;1.15;;
64361;SDS011;50685;53.346;-6.296;2023-05-07T05:11:22;2.78;;;0.88;;
64361;SDS011;50685;53.346;-6.296;2023-05-07T05:13:47;4.50;;;1.30;;
64361;SDS011;50685;53.346;-6.296;2023-05-07T05:16:14;7.03;;;1.33;;
64361;SDS011;50685;53.346;-6.296;2023-05-07T05:18:42;3.00;;;1.10;;
64361;SDS011;50685;53.346;-6.296;2023-05-07T05:21:08;2.67;;;1.10;;
64361;SDS011;50685;53.346;-6.296;2023-05-07T05:23:43;5.50;;;1.02;;
64361;SDS011;50685;53.346;-6.296;2023-05-07T05:26:09;3.55;;;1.00;;
64361;SDS011;50685;53.346;-6.296;2023-05-07T05:28:41;2.30;;;1.63;;
64361;SDS011;50685;53.346;-6.296;2023-05-07T05:31:06;3.85;;;1.67;;
64361;SDS011;50685;53.346;-6.296;2023-05-07T05:33:37;4.80;;;1.98;;
64361;SDS011;50685;53.346;-6.296;2023-05-07T05:36:03;7.60;;;2.85;;
64361;SDS011;50685;53.346;-6.296;2023-05-07T05:38:45;7.97;;;2.78;;
64361;SDS011;50685;53.346;-6.296;2023-05-07T05:41:14;7.32;;;2.22;;
64361;SDS011;50685;53.346;-6.296;2023-05-07T05:43:40;6.10;;;2.30;;
64361;SDS011;50685;53.346;-6.296;2023-05-07T05:46:08;5.43;;;1.77;;
64361;SDS011;50685;53.346;-6.296;2023-05-07T05:48:39;7.43;;;2.05;;
64361;SDS011;50685;53.346;-6.296;2023-05-07T05:51:14;1.50;;;1.40;;
64361;SDS011;50685;53.346;-6.296;2023-05-07T05:53:43;4.20;;;1.80;;
64361;SDS011;50685;53.346;-6.296;2023-05-07T05:56:08;4.93;;;2.30;;
64361;SDS011;50685;53.346;-6.296;2023-05-07T05:58:40;3.42;;;1.90;;
64361;SDS011;50685;53.346;-6.296;2023-05-07T06:01:05;3.40;;;2.10;;
64361;SDS011;50685;53.346;-6.296;2023-05-07T06:03:31;5.80;;;2.00;;
64361;SDS011;50685;53.346;-6.296;2023-05-07T06:05:57;6.85;;;1.95;;
64361;SDS011;50685;53.346;-6.296;2023-05-07T06:08:23;2.55;;;1.70;;
64361;SDS011;50685;53.346;-6.296;2023-05-07T06:10:48;2.60;;;1.52;;
64361;SDS011;50685;53.346;-6.296;2023-05-07T06:13:14;4.63;;;1.60;;
64361;SDS011;50685;53.346;-6.296;2023-05-07T06:15:40;3.15;;;1.52;;
64361;SDS011;50685;53.346;-6.296;2023-05-07T06:18:08;2.97;;;1.55;;
64361;SDS011;50685;53.346;-6.296;2023-05-07T06:20:34;2.38;;;1.73;;
64361;SDS011;50685;53.346;-6.296;2023-05-07T06:23:00;4.70;;;1.98;;
64361;SDS011;50685;53.346;-6.296;2023-05-07T06:25:27;5.60;;;2.00;;
64361;SDS011;50685;53.346;-6.296;2023-05-07T06:27:54;7.43;;;1.73;;
64361;SDS011;50685;53.346;-6.296;2023-05-07T06:30:20;4.20;;;1.30;;
64361;SDS011;50685;53.346;-6.296;2023-05-07T06:32:45;6.95;;;1.48;;
64361;SDS011;50685;53.346;-6.296;2023-05-07T06:35:14;6.50;;;1.60;;
64361;SDS011;50685;53.346;-6.296;2023-05-07T06:37:42;2.05;;;1.40;;
64361;SDS011;50685;53.346;-6.296;2023-05-07T06:40:11;3.22;;;1.50;;
64361;SDS011;50685;53.346;-6.296;2023-05-07T06:42:44;3.53;;;1.33;;
64361;SDS011;50685;53.346;-6.296;2023-05-07T06:45:12;2.80;;;1.13;;
64361;SDS011;50685;53.346;-6.296;2023-05-07T06:47:37;5.40;;;1.55;;
64361;SDS011;50685;53.346;-6.296;2023-05-07T06:50:05;2.58;;;0.90;;
64361;SDS011;50685;53.346;-6.296;2023-05-07T06:52:34;8.05;;;1.52;;
64361;SDS011;50685;53.346;-6.296;2023-05-07T06:55:03;6.05;;;2.25;;
64361;SDS011;50685;53.346;-6.296;2023-05-07T06:57:36;4.20;;;2.40;;
64361;SDS011;50685;53.346;-6.296;2023-05-07T07:00:06;6.22;;;2.22;;
64361;SDS011;50685;53.346;-6.296;2023-05-07T07:02:33;9.20;;;2.17;;
64361;SDS011;50685;53.346;-6.296;2023-05-07T07:04:59;4.65;;;1.92;;
64361;SDS011;50685;53.346;-6.296;2023-05-07T07:07:25;5.40;;;2.08;;
64361;SDS011;50685;53.346;-6.296;2023-05-07T07:09:50;4.30;;;1.85;;
64361;SDS011;50685;53.346;-6.296;2023-05-07T07:12:21;8.35;;;2.40;;
64361;SDS011;50685;53.346;-6.296;2023-05-07T07:14:49;5.35;;;2.85;;
64361;SDS011;50685;53.346;-6.296;2023-05-07T07:17:15;11.38;;;3.40;;
64361;SDS011;50685;53.346;-6.296;2023-05-07T07:19:45;20.80;;;3.60;;
64361;SDS011;50685;53.346;-6.296;2023-05-07T07:22:10;8.55;;;3.30;;
64361;SDS011;50685;53.346;-6.296;2023-05-07T07:24:39;6.40;;;2.80;;
64361;SDS011;50685;53.346;-6.296;2023-05-07T07:27:04;8.07;;;3.35;;
64361;SDS011;50685;53.346;-6.296;2023-05-07T07:29:32;3.60;;;1.70;;
64361;SDS011;50685;53.346;-6.296;2023-05-07T07:31:58;2.20;;;1.38;;
64361;SDS011;50685;53.346;-6.296;2023-05-07T07:34:23;1.77;;;1.10;;
64361;SDS011;50685;53.346;-6.296;2023-05-07T07:36:49;4.30;;;1.08;;
64361;SDS011;50685;53.346;-6.296;2023-05-07T07:39:14;2.65;;;1.10;;
64361;SDS011;50685;53.346;-6.296;2023-05-07T07:41:40;5.85;;;1.20;;
64361;SDS011;50685;53.346;-6.296;2023-05-07T07:44:06;2.10;;;0.90;;
64361;SDS011;50685;53.346;-6.296;2023-05-07T07:46:32;2.17;;;0.90;;
64361;SDS011;50685;53.346;-6.296;2023-05-07T07:48:58;3.15;;;1.00;;
64361;SDS011;50685;53.346;-6.296;2023-05-07T07:51:24;1.92;;;1.00;;
64361;SDS011;50685;53.346;-6.296;2023-05-07T07:53:51;1.35;;;0.85;;
64361;SDS011;50685;53.346;-6.296;2023-05-07T07:56:17;3.85;;;1.02;;
64361;SDS011;50685;53.346;-6.296;2023-05-07T07:58:42;2.97;;;0.88;;
64361;SDS011;50685;53.346;-6.296;2023-05-07T08:01:08;5.32;;;1.17;;
64361;SDS011;50685;53.346;-6.296;2023-05-07T08:03:33;5.38;;;1.35;;
64361;SDS011;50685;53.346;-6.296;2023-05-07T08:05:59;4.30;;;1.20;;
64361;SDS011;50685;53.346;-6.296;2023-05-07T08:11:00;4.15;;;1.27;;
64361;SDS011;50685;53.346;-6.296;2023-05-07T08:13:26;2.25;;;0.80;;
64361;SDS011;50685;53.346;-6.296;2023-05-07T08:15:51;5.32;;;1.02;;
64361;SDS011;50685;53.346;-6.296;2023-05-07T08:18:17;3.45;;;1.02;;
64361;SDS011;50685;53.346;-6.296;2023-05-07T08:20:43;3.95;;;0.80;;
64361;SDS011;50685;53.346;-6.296;2023-05-07T08:23:08;1.65;;;0.70;;
64361;SDS011;50685;53.346;-6.296;2023-05-07T08:25:34;3.25;;;0.98;;
64361;SDS011;50685;53.346;-6.296;2023-05-07T08:28:00;5.03;;;1.45;;
64361;SDS011;50685;53.346;-6.296;2023-05-07T08:30:26;3.83;;;0.85;;
64361;SDS011;50685;53.346;-6.296;2023-05-07T08:32:51;3.50;;;1.33;;
64361;SDS011;50685;53.346;-6.296;2023-05-07T08:35:17;3.47;;;0.90;;
64361;SDS011;50685;53.346;-6.296;2023-05-07T08:37:42;1.13;;;0.73;;
64361;SDS011;50685;53.346;-6.296;2023-05-07T08:40:09;2.58;;;0.90;;
64361;SDS011;50685;53.346;-6.296;2023-05-07T08:42:35;1.17;;;0.68;;
64361;SDS011;50685;53.346;-6.296;2023-05-07T08:45:03;5.38;;;0.90;;
64361;SDS011;50685;53.346;-6.296;2023-05-07T08:47:34;10.05;;;1.02;;
64361;SDS011;50685;53.346;-6.296;2023-05-07T08:50:04;5.20;;;1.10;;
64361;SDS011;50685;53.346;-6.296;2023-05-07T08:52:30;4.32;;;1.00;;
64361;SDS011;50685;53.346;-6.296;2023-05-07T08:54:56;5.00;;;1.58;;
64361;SDS011;50685;53.346;-6.296;2023-05-07T08:57:23;3.20;;;1.08;;
64361;SDS011;50685;53.346;-6.296;2023-05-07T08:59:49;1.40;;;0.80;;
64361;SDS011;50685;53.346;-6.296;2023-05-07T09:02:17;3.05;;;1.05;;
64361;SDS011;50685;53.346;-6.296;2023-05-07T09:04:43;4.93;;;1.33;;
64361;SDS011;50685;53.346;-6.296;2023-05-07T09:07:15;6.45;;;1.65;;
64361;SDS011;50685;53.346;-6.296;2023-05-07T09:09:41;4.40;;;1.30;;
64361;SDS011;50685;53.346;-6.296;2023-05-07T09:12:09;4.47;;;1.20;;
64361;SDS011;50685;53.346;-6.296;2023-05-07T09:14:35;4.65;;;1.10;;
64361;SDS011;50685;53.346;-6.296;2023-05-07T09:17:01;3.45;;;1.35;;
64361;SDS011;50685;53.346;-6.296;2023-05-07T09:19:27;6.30;;;1.50;;
64361;SDS011;50685;53.346;-6.296;2023-05-07T09:22:02;4.35;;;1.83;;
64361;SDS011;50685;53.346;-6.296;2023-05-07T09:24:29;10.85;;;1.95;;
64361;SDS011;50685;53.346;-6.296;2023-05-07T09:26:59;2.63;;;1.05;;
64361;SDS011;50685;53.346;-6.296;2023-05-07T09:29:26;4.40;;;1.27;;
64361;SDS011;50685;53.346;-6.296;2023-05-07T09:31:54;2.47;;;1.23;;
64361;SDS011;50685;53.346;-6.296;2023-05-07T09:34:19;2.47;;;1.00;;
64361;SDS011;50685;53.346;-6.296;2023-05-07T09:36:45;2.83;;;1.23;;
64361;SDS011;50685;53.346;-6.296;2023-05-07T09:39:11;7.28;;;1.40;;
64361;SDS011;50685;53.346;-6.296;2023-05-07T09:41:44;5.35;;;1.25;;
64361;SDS011;50685;53.346;-6.296;2023-05-07T09:44:11;4.13;;;1.15;;
64361;SDS011;50685;53.346;-6.296;2023-05-07T09:46:38;4.47;;;1.10;;
64361;SDS011;50685;53.346;-6.296;2023-05-07T09:49:04;3.58;;;1.02;;
64361;SDS011;50685;53.346;-6.296;2023-05-07T09:51:39;3.40;;;0.90;;
64361;SDS011;50685;53.346;-6.296;2023-05-07T09:54:10;4.97;;;1.27;;
64361;SDS011;50685;53.346;-6.296;2023-05-07T09:56:37;2.45;;;0.93;;
64361;SDS011;50685;53.346;-6.296;2023-05-07T09:59:03;5.45;;;0.93;;
64361;SDS011;50685;53.346;-6.296;2023-05-07T10:01:31;3.30;;;1.00;;
64361;SDS011;50685;53.346;-6.296;2023-05-07T10:04:01;4.28;;;0.93;;
64361;SDS011;50685;53.346;-6.296;2023-05-07T10:06:29;4.25;;;1.10;;
64361;SDS011;50685;53.346;-6.296;2023-05-07T10:11:34;3.72;;;0.98;;
64361;SDS011;50685;53.346;-6.296;2023-05-07T10:14:00;2.58;;;0.80;;
64361;SDS011;50685;53.346;-6.296;2023-05-07T10:16:27;1.92;;;0.70;;
64361;SDS011;50685;53.346;-6.296;2023-05-07T10:18:57;4.07;;;0.93;;
64361;SDS011;50685;53.346;-6.296;2023-05-07T10:21:23;1.90;;;0.90;;
64361;SDS011;50685;53.346;-6.296;2023-05-07T10:23:58;1.77;;;0.80;;
64361;SDS011;50685;53.346;-6.296;2023-05-07T10:26:42;1.27;;;0.60;;
64361;SDS011;50685;53.346;-6.296;2023-05-07T10:31:55;4.75;;;0.77;;
64361;SDS011;50685;53.346;-6.296;2023-05-07T10:34:26;2.95;;;0.73;;
64361;SDS011;50685;53.346;-6.296;2023-05-07T10:36:54;1.60;;;0.60;;
64361;SDS011;50685;53.346;-6.296;2023-05-07T10:39:21;5.13;;;0.88;;
64361;SDS011;50685;53.346;-6.296;2023-05-07T10:41:47;3.20;;;0.90;;
64361;SDS011;50685;53.346;-6.296;2023-05-07T10:44:26;3.88;;;0.82;;
64361;SDS011;50685;53.346;-6.296;2023-05-07T10:47:05;1.05;;;0.82;;
64361;SDS011;50685;53.346;-6.296;2023-05-07T10:54:46;1.30;;;0.70;;
64361;SDS011;50685;53.346;-6.296;2023-05-07T10:59:55;2.05;;;0.80;;
64361;SDS011;50685;53.346;-6.296;2023-05-07T11:02:27;1.80;;;0.82;;
64361;SDS011;50685;53.346;-6.296;2023-05-07T11:05:24;1.25;;;0.70;;
64361;SDS011;50685;53.346;-6.296;2023-05-07T11:07:54;1.58;;;0.68;;
64361;SDS011;50685;53.346;-6.296;2023-05-07T11:10:20;1.92;;;0.80;;
64361;SDS011;50685;53.346;-6.296;2023-05-07T11:15:15;6.32;;;1.38;;
64361;SDS011;50685;53.346;-6.296;2023-05-07T11:17:59;5.63;;;1.00;;
64361;SDS011;50685;53.346;-6.296;2023-05-07T11:26:06;4.30;;;1.17;;
64361;SDS011;50685;53.346;-6.296;2023-05-07T11:28:37;1.58;;;0.90;;
64361;SDS011;50685;53.346;-6.296;2023-05-07T11:31:04;2.10;;;0.98;;
64361;SDS011;50685;53.346;-6.296;2023-05-07T11:33:30;4.30;;;1.52;;
64361;SDS011;50685;53.346;-6.296;2023-05-07T11:35:56;4.07;;;1.38;;
64361;SDS011;50685;53.346;-6.296;2023-05-07T11:38:22;5.18;;;1.20;;
64361;SDS011;50685;53.346;-6.296;2023-05-07T11:40:51;7.60;;;1.27;;
64361;SDS011;50685;53.346;-6.296;2023-05-07T11:43:18;3.63;;;1.60;;
64361;SDS011;50685;53.346;-6.296;2023-05-07T11:45:47;4.10;;;1.35;;
64361;SDS011;50685;53.346;-6.296;2023-05-07T11:48:13;5.32;;;1.20;;
64361;SDS011;50685;53.346;-6.296;2023-05-07T11:53:27;2.28;;;0.90;;
64361;SDS011;50685;53.346;-6.296;2023-05-07T11:55:59;3.22;;;1.38;;
64361;SDS011;50685;53.346;-6.296;2023-05-07T11:58:25;4.20;;;1.42;;
64361;SDS011;50685;53.346;-6.296;2023-05-07T12:00:51;4.43;;;1.30;;
64361;SDS011;50685;53.346;-6.296;2023-05-07T12:03:18;2.95;;;1.08;;
64361;SDS011;50685;53.346;-6.296;2023-05-07T12:05:44;3.70;;;1.60;;
64361;SDS011;50685;53.346;-6.296;2023-05-07T12:27:52;2.03;;;0.70;;
64361;SDS011;50685;53.346;-6.296;2023-05-07T12:40:12;1.52;;;0.60;;
64361;SDS011;50685;53.346;-6.296;2023-05-07T12:42:39;2.88;;;0.50;;
64361;SDS011;50685;53.346;-6.296;2023-05-07T12:45:17;0.63;;;0.50;;
64361;SDS011;50685;53.346;-6.296;2023-05-07T12:51:12;0.55;;;0.50;;
64361;SDS011;50685;53.346;-6.296;2023-05-07T12:53:43;1.20;;;0.40;;
64361;SDS011;50685;53.346;-6.296;2023-05-07T12:56:15;0.75;;;0.30;;
64361;SDS011;50685;53.346;-6.296;2023-05-07T12:58:48;0.88;;;0.40;;
64361;SDS011;50685;53.346;-6.296;2023-05-07T13:01:15;1.75;;;0.50;;
64361;SDS011;50685;53.346;-6.296;2023-05-07T13:03:48;2.30;;;0.50;;
64361;SDS011;50685;53.346;-6.296;2023-05-07T13:06:15;1.38;;;0.45;;
64361;SDS011;50685;53.346;-6.296;2023-05-07T13:08:44;1.17;;;0.60;;
64361;SDS011;50685;53.346;-6.296;2023-05-07T13:11:17;1.85;;;0.77;;
64361;SDS011;50685;53.346;-6.296;2023-05-07T13:13:48;0.80;;;0.40;;
64361;SDS011;50685;53.346;-6.296;2023-05-07T13:16:14;0.82;;;0.43;;
64361;SDS011;50685;53.346;-6.296;2023-05-07T13:18:39;1.30;;;0.40;;
64361;SDS011;50685;53.346;-6.296;2023-05-07T13:21:06;0.50;;;0.50;;
64361;SDS011;50685;53.346;-6.296;2023-05-07T13:23:31;0.75;;;0.40;;
64361;SDS011;50685;53.346;-6.296;2023-05-07T13:25:57;2.72;;;0.68;;
64361;SDS011;50685;53.346;-6.296;2023-05-07T13:28:25;1.58;;;0.60;;
64361;SDS011;50685;53.346;-6.296;2023-05-07T13:30:51;0.63;;;0.30;;
64361;SDS011;50685;53.346;-6.296;2023-05-07T13:33:17;1.10;;;0.40;;
64361;SDS011;50685;53.346;-6.296;2023-05-07T13:35:43;0.57;;;0.57;;
64361;SDS011;50685;53.346;-6.296;2023-05-07T13:38:09;0.88;;;0.57;;
64361;SDS011;50685;53.346;-6.296;2023-05-07T13:40:34;2.75;;;0.52;;
64361;SDS011;50685;53.346;-6.296;2023-05-07T13:43:03;1.33;;;0.60;;
64361;SDS011;50685;53.346;-6.296;2023-05-07T13:45:30;0.60;;;0.50;;
64361;SDS011;50685;53.346;-6.296;2023-05-07T13:47:56;0.77;;;0.50;;
64361;SDS011;50685;53.346;-6.296;2023-05-07T13:50:25;0.85;;;0.65;;
64361;SDS011;50685;53.346;-6.296;2023-05-07T13:52:54;0.80;;;0.73;;
64361;SDS011;50685;53.346;-6.296;2023-05-07T13:55:20;0.88;;;0.40;;
64361;SDS011;50685;53.346;-6.296;2023-05-07T13:57:48;3.63;;;0.60;;
64361;SDS011;50685;53.346;-6.296;2023-05-07T14:00:30;1.05;;;0.40;;
64361;SDS011;50685;53.346;-6.296;2023-05-07T14:02:56;3.00;;;1.00;;
64361;SDS011;50685;53.346;-6.296;2023-05-07T14:05:21;1.38;;;0.63;;
64361;SDS011;50685;53.346;-6.296;2023-05-07T14:10:27;1.83;;;0.63;;
64361;SDS011;50685;53.346;-6.296;2023-05-07T14:13:12;1.00;;;0.50;;
64361;SDS011;50685;53.346;-6.296;2023-05-07T14:15:41;1.52;;;0.40;;
64361;SDS011;50685;53.346;-6.296;2023-05-07T14:18:13;1.85;;;0.73;;
64361;SDS011;50685;53.346;-6.296;2023-05-07T14:20:48;1.70;;;0.55;;
64361;SDS011;50685;53.346;-6.296;2023-05-07T14:23:14;0.77;;;0.45;;
64361;SDS011;50685;53.346;-6.296;2023-05-07T14:25:50;1.95;;;0.77;;
64361;SDS011;50685;53.346;-6.296;2023-05-07T14:28:16;1.33;;;0.47;;
64361;SDS011;50685;53.346;-6.296;2023-05-07T14:30:42;0.75;;;0.50;;
64361;SDS011;50685;53.346;-6.296;2023-05-07T14:33:07;0.70;;;0.50;;
64361;SDS011;50685;53.346;-6.296;2023-05-07T14:35:36;1.00;;;0.50;;
64361;SDS011;50685;53.346;-6.296;2023-05-07T14:38:05;1.33;;;0.40;;
64361;SDS011;50685;53.346;-6.296;2023-05-07T14:40:36;0.40;;;0.40;;
64361;SDS011;50685;53.346;-6.296;2023-05-07T14:43:02;2.47;;;0.50;;
64361;SDS011;50685;53.346;-6.296;2023-05-07T14:45:27;0.57;;;0.40;;
64361;SDS011;50685;53.346;-6.296;2023-05-07T14:48:02;1.10;;;0.50;;
64361;SDS011;50685;53.346;-6.296;2023-05-07T14:50:40;3.95;;;0.57;;
64361;SDS011;50685;53.346;-6.296;2023-05-07T14:53:08;1.77;;;0.73;;
64361;SDS011;50685;53.346;-6.296;2023-05-07T14:55:36;1.92;;;0.95;;
64361;SDS011;50685;53.346;-6.296;2023-05-07T14:58:11;1.08;;;0.40;;
64361;SDS011;50685;53.346;-6.296;2023-05-07T15:00:39;1.92;;;0.70;;
64361;SDS011;50685;53.346;-6.296;2023-05-07T15:03:06;1.55;;;1.00;;
64361;SDS011;50685;53.346;-6.296;2023-05-07T15:05:33;0.82;;;0.40;;
64361;SDS011;50685;53.346;-6.296;2023-05-07T15:10:37;0.70;;;0.50;;
64361;SDS011;50685;53.346;-6.296;2023-05-07T15:13:05;2.72;;;0.57;;
64361;SDS011;50685;53.346;-6.296;2023-05-07T15:15:34;3.00;;;0.50;;
64361;SDS011;50685;53.346;-6.296;2023-05-07T15:18:00;2.00;;;0.65;;
64361;SDS011;50685;53.346;-6.296;2023-05-07T15:20:26;1.77;;;0.65;;
64361;SDS011;50685;53.346;-6.296;2023-05-07T15:22:51;1.52;;;0.50;;
64361;SDS011;50685;53.346;-6.296;2023-05-07T15:25:19;1.92;;;0.60;;
64361;SDS011;50685;53.346;-6.296;2023-05-07T15:27:48;2.88;;;0.60;;
64361;SDS011;50685;53.346;-6.296;2023-05-07T15:30:14;2.78;;;0.50;;
64361;SDS011;50685;53.346;-6.296;2023-05-07T15:32:43;2.17;;;0.80;;
64361;SDS011;50685;53.346;-6.296;2023-05-07T15:35:09;4.78;;;0.63;;
64361;SDS011;50685;53.346;-6.296;2023-05-07T15:37:37;2.88;;;0.70;;
64361;SDS011;50685;53.346;-6.296;2023-05-07T15:40:02;2.75;;;0.80;;
64361;SDS011;50685;53.346;-6.296;2023-05-07T15:42:30;5.80;;;1.10;;
64361;SDS011;50685;53.346;-6.296;2023-05-07T15:44:55;4.28;;;0.77;;
64361;SDS011;50685;53.346;-6.296;2023-05-07T15:47:25;1.60;;;0.80;;
64361;SDS011;50685;53.346;-6.296;2023-05-07T15:49:51;3.33;;;0.80;;
64361;SDS011;50685;53.346;-6.296;2023-05-07T15:52:17;4.10;;;0.75;;
64361;SDS011;50685;53.346;-6.296;2023-05-07T15:54:45;3.40;;;0.80;;
64361;SDS011;50685;53.346;-6.296;2023-05-07T15:57:11;3.28;;;0.88;;
64361;SDS011;50685;53.346;-6.296;2023-05-07T15:59:36;3.40;;;0.73;;
64361;SDS011;50685;53.346;-6.296;2023-05-07T16:02:05;6.20;;;1.10;;